createdAt,value
2023-04-08T00:00:48.267Z,12.30
2023-04-08T00:03:38.234Z,12.20
2023-04-08T00:06:27.342Z,12.00
2023-04-08T00:09:15.851Z,11.50
2023-04-08T00:12:04.327Z,11.60
2023-04-08T00:14:52.758Z,11.50
2023-04-08T00:17:41.642Z,11.70
2023-04-08T00:20:31.532Z,11.90
2023-04-08T00:23:21.370Z,11.90
2023-04-08T00:26:09.807Z,11.80
2023-04-08T00:28:58.259Z,11.80
2023-04-08T00:31:46.636Z,11.90
2023-04-08T00:34:35.092Z,11.90
2023-04-08T00:40:14.199Z,12.20
2023-04-08T00:43:02.702Z,11.70
2023-04-08T00:45:51.386Z,11.80
2023-04-08T00:48:39.923Z,11.80
2023-04-08T00:51:28.400Z,12.00
2023-04-08T00:54:18.167Z,12.20
2023-04-08T00:57:07.301Z,12.30
2023-04-08T00:59:55.875Z,12.30
2023-04-08T01:02:49.109Z,12.60
2023-04-08T01:05:47.092Z,12.40
2023-04-08T01:08:37.815Z,12.30
2023-04-08T01:11:30.520Z,12.30
2023-04-08T01:14:22.665Z,12.30
2023-04-08T01:17:11.833Z,12.10
2023-04-08T01:20:01.996Z,12.30
2023-04-08T01:23:22.024Z,12.40
2023-04-08T01:29:04.323Z,11.90
2023-04-08T01:31:54.439Z,12.10
2023-04-08T01:34:44.175Z,12.00
2023-04-08T01:37:34.105Z,12.20
2023-04-08T01:40:22.682Z,13.10
2023-04-08T01:43:15.647Z,12.30
2023-04-08T01:46:04.202Z,12.10
2023-04-08T01:48:53.551Z,12.00
2023-04-08T01:51:42.765Z,12.10
2023-04-08T01:54:31.304Z,12.00
2023-04-08T01:57:25.579Z,12.10
2023-04-08T02:00:16.898Z,12.10
2023-04-08T02:03:08.045Z,12.20
2023-04-08T02:05:56.651Z,12.20
2023-04-08T02:08:46.042Z,12.30
2023-04-08T02:11:34.451Z,12.40
2023-04-08T02:14:23.011Z,12.50
2023-04-08T02:17:15.751Z,12.50
2023-04-08T02:20:08.657Z,12.50
2023-04-08T02:23:03.438Z,12.50
2023-04-08T02:25:54.171Z,12.50
2023-04-08T02:28:43.309Z,12.50
2023-04-08T02:31:32.269Z,12.50
2023-04-08T02:34:23.447Z,12.30
2023-04-08T02:37:12.111Z,12.30
2023-04-08T02:40:00.956Z,12.30
2023-04-08T02:42:49.443Z,12.20
2023-04-08T02:45:42.766Z,12.20
2023-04-08T02:48:31.393Z,12.30
2023-04-08T02:51:21.571Z,12.30
2023-04-08T02:54:09.984Z,12.20
2023-04-08T02:56:58.439Z,12.20
2023-04-08T02:59:46.878Z,12.10
2023-04-08T03:02:35.723Z,12.10
2023-04-08T03:05:24.360Z,12.10
2023-04-08T03:08:14.178Z,12.00
2023-04-08T03:13:51.473Z,11.80
2023-04-08T03:16:39.888Z,11.90
2023-04-08T03:19:28.344Z,12.00
2023-04-08T03:22:16.804Z,11.70
2023-04-08T03:25:07.590Z,11.90
2023-04-08T03:27:56.124Z,12.00
2023-04-08T03:30:44.790Z,12.10
2023-04-08T03:33:33.662Z,12.10
2023-04-08T03:36:22.135Z,12.20
2023-04-08T03:39:10.976Z,12.00
2023-04-08T03:42:01.225Z,12.00
2023-04-08T03:44:49.645Z,11.80
2023-04-08T03:47:38.076Z,11.90
2023-04-08T03:50:26.512Z,11.80
2023-04-08T03:53:15.160Z,11.80
2023-04-08T03:56:04.576Z,11.90
2023-04-08T03:58:54.444Z,12.00
2023-04-08T04:01:42.879Z,13.10
2023-04-08T04:04:31.343Z,11.90
2023-04-08T04:07:19.828Z,11.90
2023-04-08T04:10:10.410Z,11.90
2023-04-08T04:12:58.884Z,11.70
2023-04-08T04:15:48.684Z,11.50
2023-04-08T04:18:37.153Z,11.50
2023-04-08T04:21:25.603Z,11.70
2023-04-08T04:24:14.578Z,11.80
2023-04-08T04:27:03.210Z,12.00
2023-04-08T04:29:51.637Z,12.00
2023-04-08T04:32:41.601Z,12.00
2023-04-08T04:35:30.088Z,12.00
2023-04-08T04:38:18.537Z,11.80
2023-04-08T04:41:07.079Z,11.90
2023-04-08T04:43:55.496Z,12.00
2023-04-08T04:46:44.003Z,12.10
2023-04-08T04:49:33.804Z,12.10
2023-04-08T04:52:22.287Z,12.10
2023-04-08T04:55:11.798Z,12.00
2023-04-08T04:58:00.298Z,12.00
2023-04-08T05:00:48.695Z,11.90
2023-04-08T05:03:37.164Z,11.90
2023-04-08T05:06:27.639Z,11.90
2023-04-08T05:09:16.098Z,11.70
2023-04-08T05:12:04.638Z,11.30
2023-04-08T05:14:53.047Z,11.10
2023-04-08T05:17:41.521Z,11.30
2023-04-08T05:20:30.292Z,11.60
2023-04-08T05:23:20.387Z,11.70
2023-04-08T05:26:09.751Z,11.80
2023-04-08T05:28:58.473Z,11.90
2023-04-08T05:31:47.035Z,12.00
2023-04-08T05:34:35.638Z,12.00
2023-04-08T05:37:24.093Z,12.00
2023-04-08T05:40:14.243Z,12.10
2023-04-08T05:43:02.682Z,12.10
2023-04-08T05:45:51.285Z,12.20
2023-04-08T05:48:39.703Z,12.20
2023-04-08T05:51:28.219Z,12.20
2023-04-08T05:54:16.695Z,12.30
2023-04-08T05:57:08.106Z,12.30
2023-04-08T05:59:57.632Z,12.30
2023-04-08T06:02:46.276Z,12.30
2023-04-08T06:05:34.932Z,12.40
2023-04-08T06:08:23.705Z,12.40
2023-04-08T06:11:12.238Z,12.50
2023-04-08T06:14:02.055Z,12.50
2023-04-08T06:16:50.555Z,12.30
2023-04-08T06:19:39.069Z,12.10
2023-04-08T06:22:27.563Z,12.20
2023-04-08T06:25:16.042Z,12.40
2023-04-08T06:28:04.524Z,12.40
2023-04-08T06:30:54.286Z,12.40
2023-04-08T06:33:42.846Z,12.60
2023-04-08T06:36:31.633Z,12.70
2023-04-08T06:39:21.627Z,12.50
2023-04-08T06:42:10.106Z,12.50
2023-04-08T06:44:58.679Z,12.60
2023-04-08T06:47:48.517Z,12.70
2023-04-08T06:50:37.135Z,12.70
2023-04-08T06:53:25.764Z,12.80
2023-04-08T06:56:14.179Z,12.80
2023-04-08T06:59:03.169Z,12.80
2023-04-08T07:01:51.788Z,12.80
2023-04-08T07:04:41.787Z,12.90
2023-04-08T07:07:30.292Z,12.90
2023-04-08T07:10:18.815Z,13.00
2023-04-08T07:13:07.339Z,13.20
2023-04-08T07:15:55.746Z,13.20
2023-04-08T07:18:44.244Z,13.20
2023-04-08T07:21:34.070Z,13.20
2023-04-08T07:24:22.498Z,13.30
2023-04-08T07:27:11.030Z,13.40
2023-04-08T07:29:59.557Z,13.40
2023-04-08T07:32:48.097Z,13.60
2023-04-08T07:35:36.626Z,13.40
2023-04-08T07:38:26.571Z,13.40
2023-04-08T07:41:15.025Z,13.60
2023-04-08T07:44:03.466Z,14.00
2023-04-08T07:46:52.010Z,14.20
2023-04-08T07:49:40.614Z,14.20
2023-04-08T07:52:29.086Z,14.40
2023-04-08T07:55:19.015Z,14.50
2023-04-08T07:58:07.575Z,14.50
2023-04-08T08:00:57.342Z,14.50
2023-04-08T08:03:46.187Z,14.30
2023-04-08T08:06:34.753Z,14.50
2023-04-08T08:09:23.215Z,14.50
2023-04-08T08:12:13.082Z,14.70
2023-04-08T08:15:01.525Z,14.80
2023-04-08T08:17:49.978Z,15.00
2023-04-08T08:20:38.452Z,15.10
2023-04-08T08:23:27.219Z,15.20
2023-04-08T08:26:15.894Z,15.30
2023-04-08T08:29:06.507Z,15.30
2023-04-08T08:31:54.901Z,15.40
2023-04-08T08:34:43.293Z,15.50
2023-04-08T08:37:31.712Z,15.50
2023-04-08T08:43:08.971Z,15.30
2023-04-08T08:45:59.464Z,15.20
2023-04-08T08:48:48.064Z,15.30
2023-04-08T08:51:37.152Z,15.50
2023-04-08T08:54:26.208Z,15.70
2023-04-08T08:57:23.649Z,15.80
2023-04-08T09:00:16.070Z,15.90
2023-04-08T09:03:22.985Z,15.90
2023-04-08T09:06:12.751Z,16.00
2023-04-08T09:09:02.790Z,16.10
2023-04-08T09:11:51.364Z,16.20
2023-04-08T09:14:39.894Z,16.40
2023-04-08T09:17:35.377Z,16.40
2023-04-08T09:20:25.375Z,16.50
2023-04-08T09:23:13.866Z,16.50
2023-04-08T09:26:09.323Z,16.50
2023-04-08T09:29:08.453Z,16.60
2023-04-08T09:34:52.244Z,16.50
2023-04-08T09:40:35.022Z,16.50
2023-04-08T09:43:26.386Z,16.60
2023-04-08T09:46:15.249Z,16.70
2023-04-08T09:49:07.475Z,16.80
2023-04-08T09:52:05.335Z,16.90
2023-04-08T09:55:03.169Z,17.00
2023-04-08T09:57:56.740Z,17.10
2023-04-08T10:00:50.738Z,16.90
2023-04-08T10:03:46.795Z,16.90
2023-04-08T10:06:37.075Z,16.90
2023-04-08T10:09:25.844Z,17.10
2023-04-08T10:12:16.194Z,17.40
2023-04-08T10:15:28.901Z,17.60
2023-04-08T10:18:38.386Z,17.60
2023-04-08T10:21:43.734Z,17.80
2023-04-08T10:24:32.182Z,18.00
2023-04-08T10:27:41.294Z,18.10
2023-04-08T10:30:43.233Z,18.30
2023-04-08T10:33:37.257Z,18.30
2023-04-08T10:36:28.108Z,18.40
2023-04-08T10:39:17.441Z,18.50
2023-04-08T10:42:09.446Z,18.70
2023-04-08T10:45:03.403Z,18.70
2023-04-08T10:50:41.286Z,18.90
2023-04-08T10:53:30.771Z,18.90
2023-04-08T10:56:19.658Z,19.10
2023-04-08T10:59:08.143Z,19.20
2023-04-08T11:04:48.365Z,19.40
2023-04-08T11:07:42.094Z,19.50
2023-04-08T11:10:32.037Z,19.50
2023-04-08T11:16:17.725Z,19.90
2023-04-08T11:19:08.973Z,19.90
2023-04-08T11:21:57.567Z,20.10
2023-04-08T11:24:46.258Z,20.40
2023-04-08T11:27:35.882Z,20.40
2023-04-08T11:30:25.189Z,20.60
2023-04-08T11:33:15.118Z,20.70
2023-04-08T11:36:05.629Z,20.90
2023-04-08T11:38:55.541Z,21.10
2023-04-08T11:41:44.545Z,21.30
2023-04-08T11:44:33.793Z,21.50
2023-04-08T11:47:22.319Z,21.60
2023-04-08T11:50:11.438Z,21.70
2023-04-08T11:53:01.259Z,21.80
2023-04-08T11:55:50.355Z,21.70
2023-04-08T11:58:38.805Z,22.10
2023-04-08T12:04:16.968Z,22.50
2023-04-08T12:07:05.534Z,22.60
2023-04-08T12:09:55.610Z,22.70
2023-04-08T12:12:44.029Z,22.90
2023-04-08T12:15:32.842Z,23.00
2023-04-08T12:18:21.401Z,23.30
2023-04-08T12:21:09.865Z,23.30
2023-04-08T12:23:58.316Z,23.20
2023-04-08T12:26:48.104Z,23.10
2023-04-08T12:29:36.561Z,23.10
2023-04-08T12:32:25.614Z,23.10
2023-04-08T12:35:15.031Z,23.20
2023-04-08T12:38:03.611Z,23.30
2023-04-08T12:40:52.144Z,23.30
2023-04-08T12:43:42.048Z,23.50
2023-04-08T12:46:30.651Z,23.50
2023-04-08T12:49:19.111Z,23.30
2023-04-08T12:52:07.572Z,23.20
2023-04-08T12:54:56.104Z,23.30
2023-04-08T12:57:44.572Z,23.40
2023-04-08T13:00:34.507Z,23.40
2023-04-08T13:03:23.036Z,23.40
2023-04-08T13:17:28.352Z,23.30
2023-04-08T13:20:16.938Z,23.30
2023-04-08T13:23:05.795Z,23.30
2023-04-08T13:25:54.325Z,22.90
2023-04-08T13:28:55.973Z,22.80
2023-04-08T13:31:46.115Z,23.00
2023-04-08T13:34:36.061Z,22.90
2023-04-08T13:37:24.573Z,23.00
2023-04-08T13:40:13.371Z,23.10
2023-04-08T13:43:02.268Z,23.20
2023-04-08T13:45:50.698Z,23.40
2023-04-08T13:48:39.220Z,23.50
2023-04-08T13:51:29.067Z,23.50
2023-04-08T13:54:17.516Z,23.40
2023-04-08T13:57:06.180Z,23.50
2023-04-08T14:02:43.544Z,23.90
2023-04-08T14:05:32.139Z,23.90
2023-04-08T14:08:25.533Z,23.90
2023-04-08T14:11:14.321Z,23.70
2023-04-08T14:14:02.812Z,23.00
2023-04-08T14:16:51.328Z,22.50
2023-04-08T14:19:39.885Z,22.10
2023-04-08T14:22:28.313Z,21.80
2023-04-08T14:25:18.317Z,21.10
2023-04-08T14:42:12.662Z,21.40
2023-04-08T14:45:01.526Z,21.50
2023-04-08T14:47:50.069Z,21.80
2023-04-08T14:50:38.598Z,22.00
2023-04-08T14:53:27.287Z,22.20
2023-04-08T14:56:15.725Z,22.30
2023-04-08T14:59:06.008Z,22.10
2023-04-08T15:01:54.490Z,21.80
2023-04-08T15:04:42.967Z,21.60
2023-04-08T15:07:31.987Z,21.30
2023-04-08T15:10:20.577Z,21.20
2023-04-08T15:13:09.172Z,20.90
2023-04-08T15:15:59.114Z,20.80
2023-04-08T15:21:36.283Z,21.00
2023-04-08T15:24:24.774Z,21.00
2023-04-08T15:27:13.173Z,21.00
2023-04-08T15:30:02.217Z,21.00
2023-04-08T15:32:52.654Z,21.10
2023-04-08T15:35:41.189Z,21.00
2023-04-08T15:38:29.744Z,20.80
2023-04-08T15:41:19.220Z,20.80
2023-04-08T15:44:07.701Z,20.60
2023-04-08T15:46:56.630Z,20.50
2023-04-08T15:52:35.587Z,20.40
2023-04-08T15:55:24.075Z,20.50
2023-04-08T15:58:12.502Z,20.40
2023-04-08T16:01:01.267Z,20.30
2023-04-08T16:03:49.837Z,20.20
2023-04-08T16:06:39.721Z,20.20
2023-04-08T16:09:28.163Z,20.10
2023-04-08T16:12:16.566Z,20.10
2023-04-08T16:15:05.577Z,20.10
2023-04-08T16:17:54.164Z,20.10
2023-04-08T16:20:42.765Z,20.00
2023-04-08T16:23:34.093Z,20.00
2023-04-08T16:26:24.221Z,20.00
2023-04-08T16:29:12.661Z,19.90
2023-04-08T16:32:01.604Z,19.80
2023-04-08T16:34:50.035Z,18.50
2023-04-08T16:37:38.424Z,19.70
2023-04-08T16:40:28.403Z,19.60
2023-04-08T16:43:16.906Z,19.60
2023-04-08T16:46:12.318Z,19.60
2023-04-08T16:49:01.320Z,19.50
2023-04-08T16:51:49.856Z,19.50
2023-04-08T16:54:38.259Z,19.40
2023-04-08T16:57:28.430Z,19.30
2023-04-08T17:00:19.694Z,19.20
2023-04-08T17:03:09.546Z,19.10
2023-04-08T17:06:07.455Z,19.00
2023-04-08T17:11:44.992Z,18.70
2023-04-08T17:14:34.918Z,18.70
2023-04-08T17:17:23.430Z,18.70
2023-04-08T17:20:12.915Z,18.70
2023-04-08T17:23:01.563Z,18.60
2023-04-08T17:25:50.063Z,18.60
2023-04-08T17:28:38.603Z,18.50
2023-04-08T17:31:28.653Z,18.50
2023-04-08T17:34:17.179Z,18.50
2023-04-08T18:41:58.919Z,17.80
2023-04-08T18:44:47.450Z,17.70
2023-04-08T18:47:36.440Z,17.50
2023-04-08T18:50:25.161Z,17.20
2023-04-08T18:53:14.037Z,17.00
2023-04-08T18:56:04.769Z,16.90
2023-04-08T18:58:54.739Z,16.80
2023-04-08T19:01:43.983Z,16.70
2023-04-08T19:04:33.518Z,16.70
2023-04-08T19:07:22.138Z,16.60
2023-04-08T19:10:11.097Z,16.50
2023-04-08T19:13:00.978Z,16.40
2023-04-08T19:15:49.900Z,16.40
2023-04-08T19:18:38.470Z,16.40
2023-04-08T19:21:27.296Z,16.30
2023-04-08T19:24:15.850Z,16.30
2023-04-08T19:27:04.437Z,16.30
2023-04-08T19:29:54.224Z,16.30
2023-04-08T19:32:43.201Z,16.30
2023-04-08T19:35:31.833Z,16.20
2023-04-08T19:38:20.285Z,16.10
2023-04-08T19:41:08.790Z,16.20
2023-04-08T19:43:57.235Z,16.20
2023-04-08T19:46:47.107Z,16.20
2023-04-08T19:49:35.728Z,16.00
2023-04-08T19:52:24.138Z,16.00
2023-04-08T19:55:12.712Z,15.90
2023-04-08T20:00:50.098Z,15.70
2023-04-08T20:03:40.339Z,15.70
2023-04-08T20:06:28.877Z,15.70
2023-04-08T20:09:17.273Z,15.50
2023-04-08T20:12:06.265Z,15.50
2023-04-08T20:14:54.763Z,15.60
2023-04-08T20:17:43.288Z,15.40
2023-04-08T20:20:33.128Z,15.70
2023-04-08T20:23:21.890Z,15.50
2023-04-08T20:26:10.320Z,15.40
2023-04-08T20:28:59.154Z,15.40
2023-04-08T20:31:47.853Z,15.50
2023-04-08T20:34:36.329Z,15.50
2023-04-08T20:37:26.345Z,15.50
2023-04-08T20:40:16.966Z,15.50
2023-04-08T20:43:06.551Z,15.40
2023-04-08T20:45:54.975Z,15.30
2023-04-08T20:48:43.426Z,15.20
2023-04-08T20:51:32.585Z,15.20
2023-04-08T20:54:22.633Z,15.00
2023-04-08T20:57:11.088Z,14.90
2023-04-08T20:59:59.634Z,14.90
2023-04-08T21:02:48.491Z,14.80
2023-04-08T21:05:38.769Z,14.80
2023-04-08T21:08:27.308Z,14.80
2023-04-08T21:11:17.399Z,14.80
2023-04-08T21:14:05.834Z,14.80
2023-04-08T21:16:54.203Z,14.80
2023-04-08T21:19:42.755Z,14.80
2023-04-08T21:22:32.280Z,14.70
2023-04-08T21:25:20.820Z,14.70
2023-04-08T21:28:10.686Z,14.70
2023-04-08T21:31:09.005Z,14.70
2023-04-08T21:33:57.550Z,14.60
2023-04-08T21:36:46.071Z,14.70
2023-04-08T21:39:34.478Z,14.70
2023-04-08T21:42:25.102Z,14.70
2023-04-08T21:45:15.428Z,14.60
2023-04-08T21:48:03.835Z,14.40
2023-04-08T21:50:53.142Z,14.30
2023-04-08T21:53:41.540Z,14.30
2023-04-08T21:56:30.031Z,14.30
2023-04-08T21:59:19.203Z,14.50
2023-04-08T22:02:11.253Z,14.30
2023-04-08T22:05:00.235Z,14.30
2023-04-08T22:07:48.792Z,14.20
2023-04-08T22:10:37.251Z,14.10
2023-04-08T22:13:25.929Z,14.20
2023-04-08T22:16:14.601Z,14.20
2023-04-08T22:19:04.406Z,14.20
2023-04-08T22:21:52.793Z,14.20
2023-04-08T22:24:41.453Z,14.20
2023-04-08T22:27:29.982Z,14.20
2023-04-08T22:30:18.488Z,14.30
2023-04-08T22:33:06.945Z,14.30
2023-04-08T22:35:58.107Z,14.40
2023-04-08T22:38:47.423Z,14.40
2023-04-08T22:41:36.034Z,14.60
2023-04-08T22:44:24.550Z,14.60
2023-04-08T22:50:01.758Z,14.70
2023-04-08T22:52:51.612Z,14.70
2023-04-08T22:55:40.116Z,14.70
2023-04-08T22:58:28.556Z,14.70
2023-04-08T23:01:20.852Z,14.70
2023-04-08T23:04:09.472Z,14.50
2023-04-08T23:06:58.094Z,14.50
2023-04-08T23:09:47.864Z,14.50
2023-04-08T23:12:36.276Z,14.60
2023-04-08T23:15:24.853Z,14.70
2023-04-08T23:18:13.298Z,14.80
2023-04-08T23:21:01.686Z,14.80
2023-04-08T23:23:50.149Z,14.80
2023-04-08T23:26:39.932Z,14.70
2023-04-08T23:29:28.349Z,14.60
2023-04-08T23:32:16.808Z,14.80
2023-04-08T23:35:06.311Z,14.70
2023-04-08T23:37:54.812Z,14.70
2023-04-08T23:40:43.329Z,14.60
2023-04-08T23:43:33.188Z,14.50
2023-04-08T23:46:21.709Z,14.50
2023-04-08T23:49:10.194Z,13.10
2023-04-08T23:51:58.643Z,14.40
2023-04-08T23:54:51.129Z,14.50
2023-04-08T23:57:42.294Z,14.60
